Time;durP1;ratioP1;P1;durP2;ratioP2;P2;SDS_P1;SDS_P2;PMS_P1;PMS_P2;Temp;Humidity;BMP_temperature;BMP_pressure;BME280_temperature;BME280_humidity;BME280_pressure;Samples;Min_cycle;Max_cycle;Signal;HPM_P1;HPM_P2
2022/06/05 00:01:23;;;;;;;29.40;14.48;;;;;;;12.93;100.00;98761.09;2606386;28;20060;-85
2022/06/05 00:02:51;;;;;;;21.48;13.73;;;;;;;12.95;100.00;98752.25;2606268;28;20056;-85
2022/06/05 00:04:28;;;;;;;29.73;14.98;;;;;;;13.02;100.00;98752.91;2601537;28;20132;-86
2022/06/05 00:05:58;;;;;;;25.70;13.48;;;;;;;13.11;100.00;98754.38;2605995;28;20814;-85
2022/06/05 00:07:32;;;;;;;20.52;13.43;;;;;;;13.14;100.00;98752.50;2606300;28;20454;-85
2022/06/05 00:09:49;;;;;;;114.57;18.00;;;;;;;13.18;100.00;98755.03;2606201;28;20049;-86
2022/06/05 00:11:07;;;;;;;37.33;13.57;;;;;;;13.07;100.00;98758.03;2565801;28;20051;-86
2022/06/05 00:12:46;;;;;;;26.70;14.05;;;;;;;12.96;100.00;98759.22;2591039;28;20079;-86
2022/06/05 00:14:01;;;;;;;50.75;15.88;;;;;;;13.03;100.00;98759.88;2605726;28;20098;-85
2022/06/05 00:15:17;;;;;;;55.85;16.20;;;;;;;13.09;100.00;98764.94;2606149;28;20103;-85
2022/06/05 00:16:32;;;;;;;38.85;15.68;;;;;;;13.04;100.00;98766.88;2606037;28;20056;-85
2022/06/05 00:17:48;;;;;;;22.00;13.68;;;;;;;13.05;100.00;98763.31;2605992;28;20076;-85
2022/06/05 00:19:04;;;;;;;95.78;15.73;;;;;;;13.06;100.00;98767.66;2605921;28;20579;-85
2022/06/05 00:20:19;;;;;;;128.10;16.52;;;;;;;13.14;100.00;98764.78;2605548;28;20053;-89
2022/06/05 00:21:35;;;;;;;66.50;14.57;;;;;;;13.16;100.00;98767.38;2605807;28;20550;-86
2022/06/05 00:22:51;;;;;;;71.60;15.10;;;;;;;13.07;100.00;98763.28;2605990;28;20057;-85
2022/06/05 00:24:06;;;;;;;33.95;14.75;;;;;;;13.05;100.00;98760.69;2605893;28;20099;-87
2022/06/05 00:25:30;;;;;;;89.72;16.52;;;;;;;13.09;100.00;98761.47;2605788;28;20048;-85
2022/06/05 00:27:02;;;;;;;101.65;15.70;;;;;;;13.08;100.00;98770.25;2605940;28;20094;-86
2022/06/05 00:28:23;;;;;;;;;;;;;;;13.10;100.00;98769.28;2606821;28;20442;-88
2022/06/05 00:30:04;;;;;;;29.70;12.93;;;;;;;13.08;100.00;98768.47;2606140;28;19929;-85
2022/06/05 00:31:32;;;;;;;107.47;14.95;;;;;;;13.11;100.00;98765.75;2606233;28;20048;-85
2022/06/05 00:33:17;;;;;;;32.85;14.15;;;;;;;13.16;100.00;98762.97;2606127;28;20048;-85
2022/06/05 00:34:33;;;;;;;32.55;13.95;;;;;;;13.09;100.00;98767.56;2605497;28;20515;-85
2022/06/05 00:35:57;;;;;;;56.85;15.20;;;;;;;13.11;100.00;98768.38;2605997;28;20393;-85
2022/06/05 00:37:26;;;;;;;27.88;14.48;;;;;;;13.10;100.00;98771.91;2606363;28;20064;-85
2022/06/05 00:38:59;;;;;;;38.55;15.77;;;;;;;13.13;100.00;98770.94;2606093;28;20076;-85
2022/06/05 00:40:30;;;;;;;46.80;15.45;;;;;;;13.08;100.00;98771.09;2606096;28;20057;-86
2022/06/05 00:41:58;;;;;;;42.63;15.23;;;;;;;13.09;100.00;98772.81;2606040;28;20041;-85
2022/06/05 00:43:18;;;;;;;20.98;14.40;;;;;;;13.12;100.00;98772.72;2606243;28;20080;-84
2022/06/05 00:44:42;;;;;;;30.05;14.95;;;;;;;13.13;100.00;98779.72;2605900;28;20048;-86
2022/06/05 00:45:58;;;;;;;26.67;15.32;;;;;;;13.19;100.00;98769.91;2606048;28;20064;-86
2022/06/05 00:47:18;;;;;;;34.75;15.52;;;;;;;13.24;100.00;98778.47;2607112;28;20078;-85
2022/06/05 00:48:33;;;;;;;30.88;15.25;;;;;;;13.26;100.00;98776.66;2605848;28;20491;-85
2022/06/05 00:50:01;;;;;;;23.25;14.45;;;;;;;13.26;100.00;98774.91;2605919;28;20108;-85
2022/06/05 00:51:16;;;;;;;47.58;15.00;;;;;;;13.24;100.00;98767.97;2606319;28;20080;-86
2022/06/05 00:52:35;;;;;;;26.95;15.73;;;;;;;13.17;100.00;98774.34;2606092;28;20052;-86
2022/06/05 00:53:51;;;;;;;39.72;16.42;;;;;;;13.13;100.00;98769.19;2605920;28;20057;-84
2022/06/05 00:55:07;;;;;;;37.67;16.80;;;;;;;13.11;100.00;98773.63;2606261;28;20139;-86
2022/06/05 00:56:23;;;;;;;41.45;16.42;;;;;;;13.13;100.00;98779.72;2606052;28;20052;-85
2022/06/05 00:57:39;;;;;;;40.00;15.52;;;;;;;13.14;100.00;98776.19;2606235;28;20442;-85
2022/06/05 00:58:55;;;;;;;37.20;16.23;;;;;;;13.16;100.00;98784.00;2605804;28;20052;-86
2022/06/05 01:00:19;;;;;;;29.60;15.38;;;;;;;13.17;100.00;98782.25;2605909;28;20049;-85
2022/06/05 01:01:34;;;;;;;57.72;15.35;;;;;;;13.12;100.00;98780.59;2606222;28;20102;-85
2022/06/05 01:02:53;;;;;;;40.22;16.10;;;;;;;13.08;100.00;98781.63;2605956;28;20613;-89
2022/06/05 01:04:09;;;;;;;83.43;17.13;;;;;;;13.10;100.00;98786.84;2605776;28;20095;-90
2022/06/05 01:05:27;;;;;;;78.95;15.68;;;;;;;13.13;100.00;98792.00;2606085;28;20048;-86
2022/06/05 01:06:42;;;;;;;62.22;15.90;;;;;;;13.09;100.00;98787.75;2605867;28;20091;-86
2022/06/05 01:07:58;;;;;;;146.82;16.75;;;;;;;13.02;100.00;98784.47;2606101;28;20052;-87
2022/06/05 01:09:13;;;;;;;141.82;15.98;;;;;;;12.95;100.00;98788.19;2605827;28;20114;-86
2022/06/05 01:10:49;;;;;;;104.03;15.48;;;;;;;12.91;100.00;98776.91;2605929;28;20131;-87
2022/06/05 01:12:26;;;;;;;46.95;13.73;;;;;;;12.87;100.00;98784.97;2605956;28;20408;-85
2022/06/05 01:13:54;;;;;;;58.95;14.77;;;;;;;12.87;100.00;98785.78;2605680;28;20075;-85
2022/06/05 01:15:42;;;;;;;109.88;15.30;;;;;;;12.83;100.00;98782.41;2605733;28;20064;-87
2022/06/05 01:17:14;;;;;;;108.28;14.50;;;;;;;12.68;100.00;98778.50;2605665;28;20535;-86
2022/06/05 01:19:18;;;;;;;67.22;12.93;;;;;;;12.63;100.00;98780.41;2607627;28;20065;-85
2022/06/05 01:21:03;;;;;;;64.90;14.82;;;;;;;12.66;100.00;98779.44;2606288;28;20055;-85
2022/06/05 01:22:33;;;;;;;57.83;13.00;;;;;;;12.66;100.00;98776.81;2607611;28;20099;-84
2022/06/05 01:24:03;;;;;;;68.80;13.75;;;;;;;12.66;100.00;98775.06;2607831;28;20049;-87
2022/06/05 01:25:38;;;;;;;33.80;13.43;;;;;;;12.64;100.00;98774.28;2607702;28;20488;-88
2022/06/05 01:27:01;;;;;;;65.75;14.50;;;;;;;12.70;100.00;98783.69;2607644;28;20052;-86
2022/06/05 01:28:24;;;;;;;26.13;13.63;;;;;;;12.72;100.00;98781.91;2607987;28;20071;-85
2022/06/05 01:29:48;;;;;;;63.75;15.25;;;;;;;12.75;100.00;98784.44;2607312;28;20056;-86
2022/06/05 01:31:15;;;;;;;57.58;14.65;;;;;;;12.79;100.00;98783.41;2607876;28;20431;-86
2022/06/05 01:32:43;;;;;;;41.20;14.30;;;;;;;12.82;100.00;98780.69;2607759;28;20053;-86
2022/06/05 01:34:32;;;;;;;20.33;15.00;;;;;;;12.87;100.00;98775.28;2607562;28;20049;-90
2022/06/05 01:35:51;;;;;;;19.08;13.88;;;;;;;12.80;100.00;98763.28;2607799;28;20610;-85
2022/06/05 01:37:29;;;;;;;19.23;14.05;;;;;;;12.71;100.00;98778.41;2607804;28;20443;-84
2022/06/05 01:39:06;;;;;;;22.58;14.43;;;;;;;12.62;100.00;98769.97;2607591;28;20127;-86
2022/06/05 01:40:31;;;;;;;18.58;14.38;;;;;;;12.67;100.00;98775.91;2607823;28;20049;-86
2022/06/05 01:41:51;;;;;;;24.55;15.35;;;;;;;12.68;100.00;98770.63;2607591;28;20067;-87
2022/06/05 01:43:10;;;;;;;27.05;15.15;;;;;;;12.72;100.00;98768.78;2607959;28;20049;-85
2022/06/05 01:44:36;;;;;;;20.23;14.45;;;;;;;12.77;100.00;98772.09;2607689;28;20049;-85
2022/06/05 01:45:54;;;;;;;28.45;15.40;;;;;;;12.79;100.00;98775.53;2607559;28;20623;-87
2022/06/05 01:47:25;;;;;;;20.92;15.00;;;;;;;12.81;100.00;98772.88;2607683;28;20053;-85
2022/06/05 01:48:51;;;;;;;22.85;15.38;;;;;;;12.93;100.00;98767.22;2607559;28;20056;-85
2022/06/05 01:50:13;;;;;;;25.98;15.27;;;;;;;13.03;100.00;98773.03;2607470;28;20060;-85
2022/06/05 01:51:35;;;;;;;64.47;13.63;;;;;;;12.97;100.00;98767.97;2607692;28;20064;-87
2022/06/05 01:52:58;;;;;;;;;;;;;;;12.99;100.00;98768.75;2608177;28;20057;-89
2022/06/05 01:54:22;;;;;;;60.67;12.05;;;;;;;12.93;100.00;98763.72;2607418;28;20002;-85
2022/06/05 01:55:44;;;;;;;73.57;12.65;;;;;;;12.82;100.00;98764.06;2607834;28;20435;-85
2022/06/05 01:57:03;;;;;;;70.32;11.35;;;;;;;12.74;100.00;98766.94;2607510;28;20936;-85
2022/06/05 01:58:23;;;;;;;63.88;11.63;;;;;;;12.65;100.00;98769.84;2607233;28;20075;-85
2022/06/05 02:00:04;;;;;;;77.63;11.27;;;;;;;12.52;100.00;98764.97;2607357;28;20111;-86
2022/06/05 02:01:28;;;;;;;87.55;13.00;;;;;;;12.47;100.00;98766.03;2607488;28;20049;-86
2022/06/05 02:02:47;;;;;;;71.00;11.65;;;;;;;12.44;100.00;98769.63;2607345;28;20072;-87
2022/06/05 02:04:14;;;;;;;76.50;12.20;;;;;;;12.37;100.00;98766.31;2607387;28;20049;-88
2022/06/05 02:05:45;;;;;;;147.38;15.00;;;;;;;12.35;100.00;98759.38;2607284;28;20049;-89
2022/06/05 02:07:10;;;;;;;98.25;13.27;;;;;;;12.41;100.00;98767.06;2607339;28;20483;-86
2022/06/05 02:08:36;;;;;;;99.60;14.13;;;;;;;12.34;100.00;98765.56;2607165;28;20095;-85
2022/06/05 02:10:03;;;;;;;115.38;14.88;;;;;;;12.33;100.00;98767.31;2607434;28;20057;-85
2022/06/05 02:11:25;;;;;;;110.90;15.40;;;;;;;12.29;100.00;98763.06;2607128;28;20499;-86
2022/06/05 02:12:41;;;;;;;161.68;16.50;;;;;;;12.25;100.00;98757.03;2607315;28;20484;-86
2022/06/05 02:14:01;;;;;;;115.50;16.08;;;;;;;12.26;100.00;98758.75;2607348;28;20069;-85
2022/06/05 02:15:17;;;;;;;115.57;15.60;;;;;;;12.27;100.00;98755.22;2607002;28;20056;-86
2022/06/05 02:16:35;;;;;;;90.15;15.48;;;;;;;12.26;100.00;98755.28;2607429;28;20471;-87
2022/06/05 02:17:51;;;;;;;146.43;16.30;;;;;;;12.34;100.00;98755.06;2606966;28;20151;-85
2022/06/05 02:19:12;;;;;;;131.55;16.35;;;;;;;12.27;100.00;98763.09;2607227;28;20458;-86
2022/06/05 02:20:28;;;;;;;94.25;14.95;;;;;;;12.24;100.00;98765.81;2607561;28;20084;-85
2022/06/05 02:21:44;;;;;;;145.10;17.35;;;;;;;12.18;100.00;98766.00;2607143;28;20041;-88
2022/06/05 02:23:02;;;;;;;172.48;18.73;;;;;;;12.14;100.00;98764.34;2607519;28;20041;-85
2022/06/05 02:24:17;;;;;;;161.70;17.55;;;;;;;12.09;100.00;98763.63;2606973;28;20052;-85
2022/06/05 02:25:34;;;;;;;116.05;16.60;;;;;;;12.05;100.00;98773.34;2607266;28;20111;-85
2022/06/05 02:26:49;;;;;;;45.03;16.20;;;;;;;12.09;100.00;98769.75;2607372;28;20045;-84
2022/06/05 02:28:10;;;;;;;173.57;20.13;;;;;;;12.11;100.00;98760.06;2606091;28;20057;-85
2022/06/05 02:29:26;;;;;;;100.18;16.48;;;;;;;12.07;100.00;98763.66;2606910;28;20072;-85
2022/06/05 02:30:45;;;;;;;35.67;18.10;;;;;;;12.08;100.00;98759.31;2607165;28;20049;-85
2022/06/05 02:32:28;;;;;;;29.63;19.58;;;;;;;12.08;100.00;98760.19;2607303;28;20056;-85
2022/06/05 02:33:59;;;;;;;31.23;19.10;;;;;;;12.11;100.00;98753.94;2607165;28;20067;-86
2022/06/05 02:35:14;;;;;;;30.30;19.83;;;;;;;12.11;100.00;98754.81;2607272;28;20110;-86
2022/06/05 02:37:18;;;;;;;39.88;19.70;;;;;;;12.16;100.00;98757.31;2606944;28;20056;-86
2022/06/05 02:39:11;;;;;;;38.53;20.88;;;;;;;12.22;100.00;98751.88;2606196;28;20223;-85
2022/06/05 02:40:50;;;;;;;29.70;20.90;;;;;;;12.26;100.00;98744.78;2607143;28;20143;-85
2022/06/05 02:42:32;;;;;;;28.58;20.05;;;;;;;12.31;100.00;98747.28;2606800;28;20057;-85
2022/06/05 02:44:29;;;;;;;29.52;20.80;;;;;;;12.38;100.00;98746.16;2606365;28;20103;-85
2022/06/05 02:46:01;;;;;;;37.45;21.02;;;;;;;12.34;100.00;98749.78;2607003;28;20140;-85
2022/06/05 02:47:38;;;;;;;35.28;20.08;;;;;;;12.32;100.00;98751.63;2607177;28;20102;-86
2022/06/05 02:49:00;;;;;;;59.83;21.15;;;;;;;12.30;100.00;98749.03;2606805;28;20175;-86
2022/06/05 02:50:27;;;;;;;61.55;13.55;;;;;;;12.35;100.00;98751.50;2607190;28;20053;-86
2022/06/05 02:51:45;;;;;;;103.60;15.05;;;;;;;12.35;100.00;98746.25;2606984;28;20052;-86
2022/06/05 02:53:07;;;;;;;158.40;15.00;;;;;;;12.34;100.00;98739.28;2607084;28;20476;-87
2022/06/05 02:54:26;;;;;;;137.18;14.93;;;;;;;12.32;100.00;98746.38;2607507;28;20547;-85
2022/06/05 02:55:42;;;;;;;136.85;15.00;;;;;;;12.28;100.00;98740.34;2608640;28;20056;-85
2022/06/05 02:56:58;;;;;;;105.88;15.27;;;;;;;12.22;100.00;98749.25;2606595;28;20103;-86
2022/06/05 02:58:14;;;;;;;97.95;15.18;;;;;;;12.12;100.00;98750.41;2606954;28;20134;-85
2022/06/05 02:59:29;;;;;;;84.22;14.75;;;;;;;12.09;100.00;98742.66;2607003;28;20424;-86
2022/06/05 03:03:27;;;;;;;125.18;16.90;;;;;;;12.08;100.00;98739.19;2606886;28;20056;-85
2022/06/05 03:03:55;;;;;;;101.43;13.68;;;;;;;12.11;100.00;98751.31;2606743;28;20049;-85
2022/06/05 03:05:10;;;;;;;125.10;15.77;;;;;;;12.05;100.00;98751.53;2606919;28;20052;-86
2022/06/05 03:06:30;;;;;;;121.13;16.60;;;;;;;12.05;100.00;98749.75;2606536;28;20045;-87
2022/06/05 03:07:46;;;;;;;117.20;18.02;;;;;;;12.07;100.00;98739.22;2606803;28;20136;-88
2022/06/05 03:09:03;;;;;;;149.13;16.35;;;;;;;12.05;100.00;98746.28;2606915;28;20056;-86
2022/06/05 03:10:19;;;;;;;134.80;16.73;;;;;;;12.05;100.00;98743.66;2606880;28;20056;-86
2022/06/05 03:11:35;;;;;;;170.52;17.40;;;;;;;12.04;100.00;98745.41;2606692;28;20080;-87
2022/06/05 03:12:50;;;;;;;128.70;16.65;;;;;;;12.05;100.00;98741.88;2606884;28;20466;-86
2022/06/05 03:14:06;;;;;;;107.90;16.73;;;;;;;12.12;100.00;98740.78;2606909;28;20443;-85
2022/06/05 03:15:22;;;;;;;121.15;18.88;;;;;;;12.21;100.00;98739.66;2606952;28;20037;-85
2022/06/05 03:16:38;;;;;;;132.27;19.05;;;;;;;12.22;100.00;98741.38;2606349;28;20045;-86
2022/06/05 03:17:53;;;;;;;142.75;18.40;;;;;;;12.18;100.00;98736.25;2606870;28;20052;-87
2022/06/05 03:19:09;;;;;;;54.08;16.13;;;;;;;12.27;100.00;98741.25;2606571;28;20067;-86
2022/06/05 03:20:25;;;;;;;148.85;19.77;;;;;;;12.32;100.00;98735.88;2606583;28;20214;-86
2022/06/05 03:21:41;;;;;;;187.35;20.75;;;;;;;12.30;100.00;98746.41;2606780;28;20136;-86
2022/06/05 03:22:56;;;;;;;91.85;16.75;;;;;;;12.37;100.00;98745.31;2607004;28;20783;-85
2022/06/05 03:24:13;;;;;;;133.27;17.67;;;;;;;12.35;100.00;98738.38;2606663;28;20141;-86
2022/06/05 03:25:30;;;;;;;312.23;22.80;;;;;;;12.34;100.00;98742.75;2606491;28;20051;-85
2022/06/05 03:26:45;;;;;;;236.73;20.88;;;;;;;12.29;100.00;98736.81;2606360;28;20222;-86
2022/06/05 03:28:01;;;;;;;293.90;24.30;;;;;;;12.35;100.00;98730.50;2606820;28;20056;-86
2022/06/05 03:29:17;;;;;;;217.57;20.00;;;;;;;12.34;100.00;98736.66;2606901;28;20174;-86
2022/06/05 03:30:35;;;;;;;83.45;18.52;;;;;;;12.44;100.00;98740.75;2606685;28;20049;-91
2022/06/05 03:31:50;;;;;;;64.30;16.83;;;;;;;12.50;100.00;98742.28;2606800;28;20122;-85
2022/06/05 03:33:07;;;;;;;225.25;24.50;;;;;;;12.48;100.00;98746.72;2606877;28;20098;-86
2022/06/05 03:34:23;;;;;;;133.88;18.42;;;;;;;12.50;100.00;98744.91;2606612;28;20052;-87
2022/06/05 03:35:41;;;;;;;159.68;18.65;;;;;;;12.47;100.00;98750.28;2606419;28;20045;-86
2022/06/05 03:36:57;;;;;;;186.45;18.73;;;;;;;12.40;100.00;98754.84;2606816;28;20049;-86
2022/06/05 03:38:14;;;;;;;146.35;19.52;;;;;;;12.41;100.00;98748.69;2606783;28;20056;-88
2022/06/05 03:39:33;;;;;;;110.28;18.23;;;;;;;12.40;100.00;98749.59;2605763;28;20487;-86
2022/06/05 03:40:48;;;;;;;180.43;19.02;;;;;;;12.34;100.00;98748.00;2606227;28;20095;-85
2022/06/05 03:42:04;;;;;;;50.58;17.60;;;;;;;12.31;100.00;98745.50;2606333;28;20495;-86
2022/06/05 03:43:19;;;;;;;38.10;18.08;;;;;;;12.29;100.00;98744.69;2606319;28;20219;-88
2022/06/05 03:44:40;;;;;;;41.10;19.95;;;;;;;12.28;100.00;98748.22;2606348;28;20064;-86
2022/06/05 03:46:10;;;;;;;31.20;20.48;;;;;;;12.28;100.00;98750.84;2606116;28;20613;-90
2022/06/05 03:47:26;;;;;;;32.10;20.42;;;;;;;12.25;100.00;98756.19;2606438;28;20102;-87
2022/06/05 03:48:41;;;;;;;33.45;20.42;;;;;;;12.20;100.00;98747.56;2606114;28;20045;-86
2022/06/05 03:49:57;;;;;;;34.20;20.08;;;;;;;12.19;100.00;98751.09;2606415;28;20143;-86
2022/06/05 03:51:16;;;;;;;41.92;21.10;;;;;;;12.21;100.00;98750.16;2606398;28;20129;-86
2022/06/05 03:52:32;;;;;;;29.73;20.02;;;;;;;12.28;100.00;98746.44;2606447;28;20049;-86
2022/06/05 03:53:48;;;;;;;28.23;20.27;;;;;;;12.37;100.00;98747.94;2606427;28;20054;-86
2022/06/05 03:55:04;;;;;;;26.25;19.25;;;;;;;12.41;100.00;98749.56;2606242;28;20107;-86
2022/06/05 03:56:23;;;;;;;30.50;18.88;;;;;;;12.39;100.00;98759.25;2606383;28;20044;-86
2022/06/05 03:57:39;;;;;;;28.63;18.40;;;;;;;12.32;100.00;98760.34;2606649;28;20491;-85
2022/06/05 03:58:57;;;;;;;25.92;17.33;;;;;;;12.28;100.00;98756.09;2606554;28;20459;-85
2022/06/05 04:00:15;;;;;;;30.30;17.30;;;;;;;12.38;100.00;98757.53;2605974;28;20484;-88
2022/06/05 04:01:30;;;;;;;25.55;17.17;;;;;;;12.40;100.00;98755.72;2606158;28;20049;-85
2022/06/05 04:02:47;;;;;;;28.20;16.67;;;;;;;12.41;100.00;98762.69;2606263;28;20095;-85
2022/06/05 04:04:03;;;;;;;21.45;16.48;;;;;;;12.47;100.00;98753.78;2605432;28;20051;-87
2022/06/05 04:05:21;;;;;;;28.08;16.70;;;;;;;12.37;100.00;98762.81;2606315;28;20056;-86
2022/06/05 04:06:36;;;;;;;23.98;16.75;;;;;;;12.46;100.00;98762.56;2606082;28;20049;-86
2022/06/05 04:07:52;;;;;;;20.15;15.85;;;;;;;12.46;100.00;98759.94;2606445;28;20057;-87
2022/06/05 04:09:09;;;;;;;24.42;16.13;;;;;;;12.41;100.00;98756.56;2606182;28;20063;-86
2022/06/05 04:10:25;;;;;;;29.48;16.52;;;;;;;12.31;100.00;98749.91;2606255;28;20060;-85
2022/06/05 04:11:41;;;;;;;26.98;16.27;;;;;;;12.32;100.00;98751.63;2606389;28;20077;-87
2022/06/05 04:12:57;;;;;;;31.00;17.17;;;;;;;12.33;100.00;98748.91;2605995;28;20053;-87
2022/06/05 04:14:13;;;;;;;59.13;16.83;;;;;;;12.35;100.00;98747.09;2604218;28;20839;-86
2022/06/05 04:15:28;;;;;;;30.40;17.25;;;;;;;12.36;100.00;98751.47;2606143;28;20080;-87
2022/06/05 04:16:44;;;;;;;40.08;17.60;;;;;;;12.40;100.00;98749.59;2606184;28;20041;-87
2022/06/05 04:17:59;;;;;;;32.95;16.98;;;;;;;12.44;100.00;98748.63;2606097;28;20051;-87
2022/06/05 04:19:15;;;;;;;30.73;17.05;;;;;;;12.48;100.00;98744.97;2605001;28;20048;-85
2022/06/05 04:20:32;;;;;;;33.47;17.35;;;;;;;12.49;100.00;98738.81;2605232;28;20393;-86
2022/06/05 04:21:48;;;;;;;33.33;16.52;;;;;;;12.47;100.00;98726.63;2605647;28;20053;-85
2022/06/05 04:23:04;;;;;;;24.95;16.40;;;;;;;12.51;100.00;98728.28;2605880;28;20084;-85
2022/06/05 04:24:20;;;;;;;25.85;16.75;;;;;;;12.54;100.00;98713.25;2606230;28;20124;-84
2022/06/05 04:25:36;;;;;;;30.00;16.58;;;;;;;12.56;100.00;98713.22;2604733;28;20679;-85
2022/06/05 04:26:51;;;;;;;30.75;16.42;;;;;;;12.59;100.00;98705.25;2604475;28;20049;-87
2022/06/05 04:28:07;;;;;;;24.73;16.27;;;;;;;12.70;100.00;98710.13;2604571;28;20103;-86
2022/06/05 04:29:23;;;;;;;27.73;16.30;;;;;;;12.79;100.00;98711.63;2604403;28;20044;-85
2022/06/05 04:30:39;;;;;;;63.42;17.70;;;;;;;12.87;100.00;98706.97;2605345;28;20064;-85
2022/06/05 04:31:55;;;;;;;27.55;15.43;;;;;;;12.89;100.00;98705.16;2604216;28;20049;-85
2022/06/05 04:33:10;;;;;;;31.00;15.35;;;;;;;12.90;100.00;98713.91;2606046;28;20053;-85
2022/06/05 04:34:26;;;;;;;64.22;17.08;;;;;;;12.94;100.00;98710.25;2606257;28;21003;-85
2022/06/05 04:35:42;;;;;;;61.08;16.00;;;;;;;12.98;100.00;98709.22;2601512;28;20088;-88
2022/06/05 04:36:58;;;;;;;49.97;15.43;;;;;;;12.92;100.00;98707.69;2602120;28;20060;-85
2022/06/05 04:38:14;;;;;;;152.18;19.10;;;;;;;12.90;100.00;98706.84;2606092;28;20048;-86
2022/06/05 04:39:30;;;;;;;36.53;15.43;;;;;;;12.82;100.00;98698.38;2606200;28;20048;-86
2022/06/05 04:40:46;;;;;;;147.65;17.73;;;;;;;12.78;100.00;98702.00;2605958;28;20052;-84
2022/06/05 04:42:02;;;;;;;24.85;16.33;;;;;;;12.80;100.00;98695.81;2606492;28;20060;-90
2022/06/05 04:43:17;;;;;;;30.83;16.38;;;;;;;12.87;100.00;98693.81;2605947;28;20666;-86
2022/06/05 04:44:33;;;;;;;51.45;16.10;;;;;;;12.79;100.00;98688.84;2606221;28;20607;-85
2022/06/05 04:45:48;;;;;;;58.45;17.48;;;;;;;12.83;100.00;98681.72;2605823;28;20179;-85
2022/06/05 04:47:04;;;;;;;22.35;16.10;;;;;;;12.92;100.00;98678.78;2606107;28;20557;-84
2022/06/05 04:48:20;;;;;;;73.68;17.35;;;;;;;13.00;100.00;98674.09;2606221;28;20049;-85
2022/06/05 04:49:35;;;;;;;40.25;16.73;;;;;;;13.05;100.00;98676.59;2606067;28;20505;-85
2022/06/05 04:50:51;;;;;;;29.75;16.25;;;;;;;13.12;100.00;98680.69;2606781;28;20076;-84
2022/06/05 04:52:07;;;;;;;26.60;15.48;;;;;;;13.21;100.00;98686.56;2607887;28;20044;-84
2022/06/05 04:53:22;;;;;;;52.97;17.33;;;;;;;13.27;100.00;98683.75;2607894;28;20483;-84
2022/06/05 04:54:38;;;;;;;69.88;17.48;;;;;;;13.17;100.00;98680.56;2607648;28;20059;-88
2022/06/05 04:55:53;;;;;;;24.10;16.58;;;;;;;13.25;100.00;98678.53;2607955;28;20063;-84
2022/06/05 04:57:09;;;;;;;21.95;15.77;;;;;;;13.37;100.00;98682.47;2608110;28;20045;-84
2022/06/05 04:58:25;;;;;;;46.47;16.55;;;;;;;13.47;100.00;98680.41;2608186;28;20502;-84
2022/06/05 04:59:40;;;;;;;42.30;15.82;;;;;;;13.55;100.00;98672.25;2607899;28;20517;-84
2022/06/05 05:00:56;;;;;;;21.15;15.80;;;;;;;13.59;100.00;98673.84;2607987;28;20052;-84
2022/06/05 05:02:12;;;;;;;51.35;15.30;;;;;;;13.61;100.00;98669.41;2607612;28;20602;-83
2022/06/05 05:03:28;;;;;;;38.33;14.85;;;;;;;13.52;100.00;98667.97;2608146;28;20044;-84
2022/06/05 05:04:47;;;;;;;51.05;15.40;;;;;;;13.55;100.00;98667.00;2608004;28;20057;-85
2022/06/05 05:06:03;;;;;;;54.00;15.13;;;;;;;13.60;100.00;98659.78;2608153;28;20484;-84
2022/06/05 05:07:18;;;;;;;36.92;16.17;;;;;;;13.79;100.00;98659.09;2607840;28;20041;-83
2022/06/05 05:08:34;;;;;;;46.25;14.73;;;;;;;13.75;100.00;98668.03;2607561;28;20706;-83
2022/06/05 05:09:49;;;;;;;34.33;14.68;;;;;;;13.79;100.00;98666.97;2607005;28;20826;-83
2022/06/05 05:11:06;;;;;;;48.63;14.77;;;;;;;13.90;100.00;98661.31;2607710;28;20514;-85
2022/06/05 05:12:21;;;;;;;47.85;14.50;;;;;;;13.97;100.00;98665.44;2607064;28;20733;-88
2022/06/05 05:13:37;;;;;;;97.05;17.08;;;;;;;13.95;100.00;98665.47;2606999;28;20514;-85
2022/06/05 05:14:53;;;;;;;65.05;17.08;;;;;;;13.88;100.00;98664.00;2606858;28;20055;-86
2022/06/05 05:16:09;;;;;;;58.10;15.13;;;;;;;13.94;100.00;98668.19;2607946;28;20045;-84
2022/06/05 05:17:24;;;;;;;37.80;14.45;;;;;;;13.88;100.00;98678.94;2608129;28;20060;-84
2022/06/05 05:18:40;;;;;;;36.28;14.93;;;;;;;13.89;100.00;98681.53;2607748;28;20143;-85
2022/06/05 05:19:57;;;;;;;34.75;14.32;;;;;;;13.96;100.00;98682.16;2607903;28;20509;-84
2022/06/05 05:21:16;;;;;;;35.20;15.10;;;;;;;13.96;100.00;98684.78;2607804;28;20491;-85
2022/06/05 05:22:37;;;;;;;54.40;15.27;;;;;;;13.94;100.00;98682.19;2607888;28;20077;-84
2022/06/05 05:23:54;;;;;;;37.42;15.25;;;;;;;13.88;100.00;98687.72;2607631;28;20506;-85
2022/06/05 05:25:11;;;;;;;74.63;16.42;;;;;;;13.91;100.00;98687.59;2608167;28;20447;-84
2022/06/05 05:26:29;;;;;;;61.78;15.65;;;;;;;13.98;100.00;98691.72;2607921;28;20045;-84
2022/06/05 05:27:45;;;;;;;50.05;14.70;;;;;;;13.96;100.00;98690.88;2607649;28;20139;-84
2022/06/05 05:29:03;;;;;;;33.30;15.32;;;;;;;13.87;100.00;98687.75;2607930;28;20045;-84
2022/06/05 05:30:18;;;;;;;46.53;16.17;;;;;;;14.03;100.00;98683.63;2607684;28;20057;-87
2022/06/05 05:31:39;;;;;;;27.50;15.07;;;;;;;14.02;100.00;98681.06;2607721;28;20059;-84
2022/06/05 05:32:55;;;;;;;31.95;15.30;;;;;;;14.06;100.00;98680.00;2607514;28;20120;-84
2022/06/05 05:34:11;;;;;;;20.85;13.82;;;;;;;14.11;100.00;98680.72;2607656;28;20060;-85
2022/06/05 05:35:27;;;;;;;30.65;14.68;;;;;;;14.24;100.00;98683.72;2607771;28;20131;-84
2022/06/05 05:36:43;;;;;;;19.08;14.38;;;;;;;14.33;100.00;98691.25;2607560;28;20127;-84
2022/06/05 05:37:58;;;;;;;32.08;14.40;;;;;;;14.21;100.00;98689.94;2607647;28;20965;-85
2022/06/05 05:42:22;;;;;;;30.73;13.90;;;;;;;14.41;100.00;98691.81;2607677;28;20080;-85
2022/06/05 05:43:38;;;;;;;31.58;14.68;;;;;;;14.50;100.00;98690.56;2607706;28;20099;-84
2022/06/05 05:44:53;;;;;;;29.98;15.02;;;;;;;14.47;100.00;98690.69;2607514;28;20544;-84
2022/06/05 05:46:10;;;;;;;18.33;14.65;;;;;;;14.65;100.00;98688.22;2607361;28;20332;-85
2022/06/05 05:47:29;;;;;;;30.58;15.20;;;;;;;14.69;100.00;98681.94;2606371;28;20053;-88
2022/06/05 05:48:44;;;;;;;21.80;14.90;;;;;;;14.68;100.00;98688.13;2605408;28;20065;-87
2022/06/05 05:50:06;;;;;;;23.30;15.35;;;;;;;14.71;100.00;98681.84;2607130;28;20064;-85
2022/06/05 05:51:22;;;;;;;19.20;14.82;;;;;;;14.83;100.00;98684.03;2606775;28;20527;-85
2022/06/05 05:52:38;;;;;;;19.23;14.95;;;;;;;14.89;100.00;98685.56;2605115;28;20115;-86
2022/06/05 05:53:54;;;;;;;21.95;15.25;;;;;;;15.03;100.00;98680.56;2607249;28;20407;-85
2022/06/05 05:55:15;;;;;;;21.80;14.80;;;;;;;14.95;100.00;98672.97;2607549;28;20566;-85
2022/06/05 05:56:31;;;;;;;20.85;15.32;;;;;;;14.96;100.00;98673.84;2607548;28;20076;-85
2022/06/05 05:57:47;;;;;;;25.90;17.33;;;;;;;14.82;100.00;98666.50;2607452;28;20041;-88
2022/06/05 05:59:03;;;;;;;21.73;16.77;;;;;;;14.89;100.00;98667.97;2607147;28;20493;-85
2022/06/05 06:00:20;;;;;;;21.60;16.38;;;;;;;14.91;100.00;98667.88;2607396;28;20061;-84
2022/06/05 06:01:36;;;;;;;21.42;16.27;;;;;;;15.05;100.00;98667.31;2607403;28;20041;-84
2022/06/05 06:02:52;;;;;;;20.33;15.10;;;;;;;15.08;100.00;98672.44;2606361;28;20088;-85
2022/06/05 06:04:07;;;;;;;22.25;16.90;;;;;;;15.10;100.00;98678.50;2607575;28;20052;-85
2022/06/05 06:05:23;;;;;;;22.38;17.52;;;;;;;15.12;100.00;98679.28;2607354;28;20135;-86
2022/06/05 06:06:44;;;;;;;24.00;15.95;;;;;;;15.18;100.00;98683.44;2607086;28;20049;-84
2022/06/05 06:08:00;;;;;;;20.95;16.23;;;;;;;15.19;100.00;98682.53;2607321;28;20067;-85
2022/06/05 06:09:17;;;;;;;20.85;15.55;;;;;;;15.16;100.00;98685.31;2607211;28;20537;-85
2022/06/05 06:10:32;;;;;;;23.15;16.25;;;;;;;15.27;100.00;98683.06;2606969;28;20048;-86
2022/06/05 06:11:48;;;;;;;24.75;16.88;;;;;;;15.32;100.00;98683.72;2607412;28;20072;-86